createdAt,value
2023-03-25T00:00:47.894Z,10.46
2023-03-25T00:01:48.653Z,10.47
2023-03-25T00:02:49.665Z,10.46
2023-03-25T00:03:50.083Z,10.49
2023-03-25T00:04:50.906Z,10.49
2023-03-25T00:05:51.844Z,10.54
2023-03-25T00:06:52.687Z,10.54
2023-03-25T00:07:53.424Z,10.52
2023-03-25T00:08:54.135Z,10.52
2023-03-25T00:09:54.828Z,10.54
2023-03-25T00:10:55.534Z,10.55
2023-03-25T00:11:56.236Z,10.55
2023-03-25T00:12:56.948Z,10.57
2023-03-25T00:13:57.632Z,10.57
2023-03-25T00:14:58.347Z,10.57
2023-03-25T00:15:59.049Z,10.54
2023-03-25T00:16:59.909Z,10.57
2023-03-25T00:18:00.746Z,10.58
2023-03-25T00:19:01.424Z,10.60
2023-03-25T00:20:02.143Z,10.58
2023-03-25T00:21:02.889Z,10.57
2023-03-25T00:22:03.598Z,10.57
2023-03-25T00:23:04.337Z,10.57
2023-03-25T00:24:05.044Z,10.58
2023-03-25T00:25:05.767Z,10.55
2023-03-25T00:26:06.506Z,10.55
2023-03-25T00:27:07.200Z,10.55
2023-03-25T00:28:07.997Z,10.55
2023-03-25T00:29:08.688Z,10.52
2023-03-25T00:30:09.395Z,10.54
2023-03-25T00:31:10.122Z,10.52
2023-03-25T00:32:10.836Z,10.51
2023-03-25T00:33:11.577Z,10.49
2023-03-25T00:34:12.313Z,10.51
2023-03-25T00:35:13.023Z,10.49
2023-03-25T00:36:13.962Z,10.52
2023-03-25T00:37:14.721Z,10.47
2023-03-25T00:38:15.447Z,10.49
2023-03-25T00:39:16.216Z,10.46
2023-03-25T00:40:16.919Z,10.46
2023-03-25T00:41:17.669Z,10.46
2023-03-25T00:42:18.388Z,10.44
2023-03-25T00:43:19.148Z,10.39
2023-03-25T00:44:19.859Z,10.44
2023-03-25T00:45:20.568Z,10.42
2023-03-25T00:46:21.297Z,10.42
2023-03-25T00:47:22.232Z,10.39
2023-03-25T00:48:23.010Z,10.43
2023-03-25T00:49:23.742Z,10.39
2023-03-25T00:50:24.449Z,10.39
2023-03-25T00:51:25.176Z,10.39
2023-03-25T00:52:25.892Z,10.42
2023-03-25T00:53:26.612Z,10.38
2023-03-25T00:54:27.323Z,10.39
2023-03-25T00:55:28.020Z,10.39
2023-03-25T00:56:28.742Z,10.38
2023-03-25T00:57:29.440Z,10.35
2023-03-25T00:58:30.170Z,10.36
2023-03-25T00:59:30.873Z,10.34
2023-03-25T01:00:31.583Z,10.34
2023-03-25T01:01:32.335Z,10.32
2023-03-25T01:02:33.077Z,10.31
2023-03-25T01:03:33.983Z,10.32
2023-03-25T01:04:34.677Z,10.32
2023-03-25T01:05:35.411Z,10.34
2023-03-25T01:06:36.154Z,10.35
2023-03-25T01:07:37.642Z,10.34
2023-03-25T01:08:37.931Z,10.34
2023-03-25T01:09:38.621Z,10.36
2023-03-25T01:10:39.313Z,10.35
2023-03-25T01:11:40.049Z,10.35
2023-03-25T01:12:40.746Z,10.34
2023-03-25T01:13:41.533Z,10.34
2023-03-25T01:14:42.288Z,10.32
2023-03-25T01:15:43.022Z,10.34
2023-03-25T01:16:44.520Z,10.32
2023-03-25T01:17:44.658Z,10.31
2023-03-25T01:18:45.426Z,10.32
2023-03-25T01:19:46.136Z,10.31
2023-03-25T01:20:47.667Z,10.29
2023-03-25T01:21:47.788Z,10.32
2023-03-25T01:22:48.531Z,10.31
2023-03-25T01:23:49.312Z,10.31
2023-03-25T01:24:50.009Z,10.31
2023-03-25T01:25:50.878Z,10.29
2023-03-25T01:26:51.689Z,10.34
2023-03-25T01:27:52.545Z,10.35
2023-03-25T01:28:53.279Z,10.39
2023-03-25T01:29:53.974Z,10.39
2023-03-25T01:30:54.691Z,10.39
2023-03-25T01:31:55.415Z,10.44
2023-03-25T01:32:56.221Z,10.39
2023-03-25T01:33:56.902Z,10.42
2023-03-25T01:34:57.613Z,10.38
2023-03-25T01:35:58.343Z,10.38
2023-03-25T01:36:59.065Z,10.36
2023-03-25T01:37:59.818Z,10.39
2023-03-25T01:39:01.162Z,10.42
2023-03-25T01:40:01.278Z,10.42
2023-03-25T01:41:02.047Z,10.42
2023-03-25T01:42:02.797Z,10.43
2023-03-25T01:43:03.500Z,10.42
2023-03-25T01:44:04.196Z,10.46
2023-03-25T01:45:04.876Z,10.43
2023-03-25T01:46:05.640Z,10.46
2023-03-25T01:47:06.338Z,10.49
2023-03-25T01:48:07.047Z,10.49
2023-03-25T01:49:07.747Z,10.49
2023-03-25T01:50:08.442Z,10.49
2023-03-25T01:51:09.154Z,10.51
2023-03-25T01:52:09.852Z,10.57
2023-03-25T01:53:10.654Z,10.52
2023-03-25T01:54:11.349Z,10.52
2023-03-25T01:55:12.060Z,10.55
2023-03-25T01:56:12.806Z,10.52
2023-03-25T01:57:13.520Z,10.54
2023-03-25T01:58:14.759Z,10.55
2023-03-25T01:59:14.899Z,10.54
2023-03-25T02:00:15.659Z,10.55
2023-03-25T02:01:16.350Z,10.51
2023-03-25T02:02:17.104Z,10.51
2023-03-25T02:03:17.843Z,10.51
2023-03-25T02:04:18.578Z,10.51
2023-03-25T02:05:19.303Z,10.52
2023-03-25T02:06:20.012Z,10.49
2023-03-25T02:07:20.733Z,10.47
2023-03-25T02:08:21.468Z,10.46
2023-03-25T02:09:22.177Z,10.46
2023-03-25T02:10:22.905Z,10.49
2023-03-25T02:11:23.645Z,10.49
2023-03-25T02:12:24.374Z,10.47
2023-03-25T02:13:25.086Z,10.46
2023-03-25T02:14:25.808Z,10.46
2023-03-25T02:15:26.510Z,10.44
2023-03-25T02:16:27.841Z,10.44
2023-03-25T02:17:28.019Z,10.43
2023-03-25T02:18:28.755Z,10.43
2023-03-25T02:19:29.468Z,10.43
2023-03-25T02:20:30.909Z,10.46
2023-03-25T02:21:31.047Z,10.42
2023-03-25T02:22:31.815Z,10.44
2023-03-25T02:23:32.528Z,10.39
2023-03-25T02:24:33.237Z,10.39
2023-03-25T02:25:34.010Z,10.39
2023-03-25T02:26:34.727Z,10.38
2023-03-25T02:27:36.276Z,10.36
2023-03-25T02:28:36.438Z,10.38
2023-03-25T02:29:37.179Z,10.38
2023-03-25T02:30:37.860Z,10.39
2023-03-25T02:31:38.647Z,10.38
2023-03-25T02:32:39.369Z,10.39
2023-03-25T02:33:40.061Z,10.39
2023-03-25T02:34:40.797Z,10.39
2023-03-25T02:35:41.542Z,10.39
2023-03-25T02:36:42.241Z,10.38
2023-03-25T02:37:42.931Z,10.38
2023-03-25T02:38:43.666Z,10.36
2023-03-25T02:39:44.400Z,10.35
2023-03-25T02:40:45.223Z,10.34
2023-03-25T02:41:45.971Z,10.34
2023-03-25T02:42:46.729Z,10.29
2023-03-25T02:43:47.440Z,10.31
2023-03-25T02:44:48.194Z,10.28
2023-03-25T02:45:49.094Z,10.26
2023-03-25T02:46:49.410Z,10.25
2023-03-25T02:47:50.226Z,10.26
2023-03-25T02:48:50.950Z,10.20
2023-03-25T02:49:51.740Z,10.16
2023-03-25T02:50:52.492Z,10.14
2023-03-25T02:51:53.203Z,10.10
2023-03-25T02:52:53.920Z,10.11
2023-03-25T02:53:54.630Z,10.10
2023-03-25T02:54:55.341Z,10.10
2023-03-25T02:55:56.059Z,10.10
2023-03-25T02:56:56.844Z,10.09
2023-03-25T02:57:57.542Z,10.07
2023-03-25T02:58:58.383Z,10.07
2023-03-25T02:59:59.078Z,10.10
2023-03-25T03:00:59.881Z,10.09
2023-03-25T03:02:00.745Z,10.11
2023-03-25T03:03:01.561Z,10.11
2023-03-25T03:04:02.284Z,10.14
2023-03-25T03:05:03.038Z,10.16
2023-03-25T03:06:03.734Z,10.16
2023-03-25T03:07:04.447Z,10.16
2023-03-25T03:08:05.148Z,10.18
2023-03-25T03:09:05.861Z,10.18
2023-03-25T03:10:06.580Z,10.20
2023-03-25T03:11:07.336Z,10.24
2023-03-25T03:12:08.016Z,10.22
2023-03-25T03:13:08.761Z,10.18
2023-03-25T03:14:09.451Z,10.17
2023-03-25T03:15:10.194Z,10.14
2023-03-25T03:16:11.911Z,10.16
2023-03-25T03:17:11.571Z,10.16
2023-03-25T03:18:12.485Z,10.11
2023-03-25T03:19:13.210Z,10.11
2023-03-25T03:20:13.943Z,10.14
2023-03-25T03:21:14.656Z,10.16
2023-03-25T03:22:15.344Z,10.14
2023-03-25T03:23:16.065Z,10.14
2023-03-25T03:24:16.787Z,10.14
2023-03-25T03:25:17.480Z,10.13
2023-03-25T03:26:18.179Z,10.14
2023-03-25T03:27:19.008Z,10.11
2023-03-25T03:28:19.729Z,10.13
2023-03-25T03:29:20.454Z,10.14
2023-03-25T03:30:21.172Z,10.13
2023-03-25T03:31:48.870Z,10.09
2023-03-25T03:32:22.998Z,10.07
2023-03-25T03:33:23.769Z,10.06
2023-03-25T03:34:24.465Z,10.02
2023-03-25T03:35:25.215Z,9.99
2023-03-25T03:36:25.910Z,9.98
2023-03-25T03:37:26.595Z,9.96
2023-03-25T03:38:27.321Z,9.93
2023-03-25T03:39:28.012Z,9.95
2023-03-25T03:40:28.710Z,9.93
2023-03-25T03:41:29.396Z,9.95
2023-03-25T03:42:30.069Z,9.91
2023-03-25T03:43:30.759Z,9.91
2023-03-25T03:44:31.455Z,9.89
2023-03-25T03:45:32.137Z,9.91
2023-03-25T03:46:32.852Z,9.93
2023-03-25T03:47:33.610Z,9.95
2023-03-25T03:48:34.319Z,9.93
2023-03-25T03:49:35.008Z,9.93
2023-03-25T03:50:35.721Z,9.95
2023-03-25T03:51:36.405Z,9.92
2023-03-25T03:52:37.119Z,9.95
2023-03-25T03:53:37.825Z,9.93
2023-03-25T03:54:38.514Z,9.92
2023-03-25T03:55:39.255Z,9.93
2023-03-25T03:56:39.982Z,9.91
2023-03-25T03:57:40.644Z,9.86
2023-03-25T03:58:41.339Z,9.88
2023-03-25T03:59:42.008Z,9.83
2023-03-25T04:00:42.674Z,9.81
2023-03-25T04:01:43.374Z,9.78
2023-03-25T04:02:44.094Z,9.78
2023-03-25T04:03:44.856Z,9.75
2023-03-25T04:04:45.662Z,9.73
2023-03-25T04:05:46.474Z,9.71
2023-03-25T04:06:47.155Z,9.67
2023-03-25T04:07:47.850Z,9.67
2023-03-25T04:08:48.558Z,9.68
2023-03-25T04:09:49.250Z,9.68
2023-03-25T04:10:49.921Z,9.67
2023-03-25T04:11:51.305Z,9.68
2023-03-25T04:12:51.503Z,9.70
2023-03-25T04:13:52.229Z,9.71
2023-03-25T04:14:52.954Z,9.70
2023-03-25T04:15:53.834Z,9.73
2023-03-25T04:16:54.158Z,9.70
2023-03-25T04:17:54.895Z,9.70
2023-03-25T04:18:55.585Z,9.70
2023-03-25T04:19:56.281Z,9.68
2023-03-25T04:20:56.966Z,9.70
2023-03-25T04:21:57.656Z,9.70
2023-03-25T04:22:58.338Z,9.73
2023-03-25T04:23:59.062Z,9.74
2023-03-25T04:24:59.717Z,9.73
2023-03-25T04:26:00.403Z,9.71
2023-03-25T04:27:01.089Z,9.71
2023-03-25T04:28:01.802Z,9.71
2023-03-25T04:29:02.498Z,9.73
2023-03-25T04:30:03.177Z,9.71
2023-03-25T04:31:03.893Z,9.70
2023-03-25T04:32:04.558Z,9.68
2023-03-25T04:33:05.249Z,9.71
2023-03-25T04:34:05.925Z,9.68
2023-03-25T04:35:06.616Z,9.71
2023-03-25T04:36:07.344Z,9.71
2023-03-25T04:37:08.011Z,9.68
2023-03-25T04:38:08.747Z,9.68
2023-03-25T04:39:09.443Z,9.68
2023-03-25T04:40:10.144Z,9.65
2023-03-25T04:41:10.867Z,9.68
2023-03-25T04:42:11.552Z,9.70
2023-03-25T04:43:12.298Z,9.71
2023-03-25T04:44:12.979Z,9.71
2023-03-25T04:45:13.671Z,9.68
2023-03-25T04:46:14.414Z,9.70
2023-03-25T04:47:15.138Z,9.65
2023-03-25T04:48:15.810Z,9.65
2023-03-25T04:49:16.536Z,9.63
2023-03-25T04:50:17.225Z,9.60
2023-03-25T04:51:17.914Z,9.59
2023-03-25T04:52:18.584Z,9.59
2023-03-25T04:53:19.289Z,9.63
2023-03-25T04:54:20.193Z,9.63
2023-03-25T04:55:20.872Z,9.63
2023-03-25T04:56:21.556Z,9.63
2023-03-25T04:57:22.238Z,9.65
2023-03-25T04:58:22.955Z,9.67
2023-03-25T04:59:23.612Z,9.65
2023-03-25T05:00:24.493Z,9.68
2023-03-25T05:01:25.177Z,9.71
2023-03-25T05:02:25.880Z,9.70
2023-03-25T05:03:26.554Z,9.73
2023-03-25T05:04:27.319Z,9.73
2023-03-25T05:05:28.016Z,9.75
2023-03-25T05:06:28.706Z,9.74
2023-03-25T05:07:29.397Z,9.71
2023-03-25T05:08:30.096Z,9.74
2023-03-25T05:09:30.779Z,9.73
2023-03-25T05:10:31.456Z,9.73
2023-03-25T05:11:32.160Z,9.70
2023-03-25T05:12:32.856Z,9.68
2023-03-25T05:13:33.761Z,9.67
2023-03-25T05:14:34.428Z,9.63
2023-03-25T05:15:35.113Z,9.62
2023-03-25T05:16:35.840Z,9.60
2023-03-25T05:17:36.533Z,9.62
2023-03-25T05:18:37.238Z,9.63
2023-03-25T05:19:37.931Z,9.63
2023-03-25T05:20:38.629Z,9.62
2023-03-25T05:21:39.317Z,9.59
2023-03-25T05:22:39.995Z,9.62
2023-03-25T05:23:40.703Z,9.60
2023-03-25T05:24:41.389Z,9.62
2023-03-25T05:25:42.086Z,9.60
2023-03-25T05:26:42.767Z,9.59
2023-03-25T05:27:43.451Z,9.59
2023-03-25T05:28:44.165Z,9.58
2023-03-25T05:29:44.864Z,9.59
2023-03-25T05:30:45.607Z,9.59
2023-03-25T05:31:46.370Z,9.59
2023-03-25T05:32:47.240Z,9.60
2023-03-25T05:33:47.930Z,9.62
2023-03-25T05:34:48.624Z,9.60
2023-03-25T05:35:49.454Z,9.62
2023-03-25T05:36:50.236Z,9.62
2023-03-25T05:37:50.925Z,9.63
2023-03-25T05:38:51.715Z,9.65
2023-03-25T05:39:52.407Z,9.65
2023-03-25T05:40:53.104Z,9.62
2023-03-25T05:41:53.866Z,9.63
2023-03-25T05:42:54.536Z,9.65
2023-03-25T05:43:55.285Z,9.65
2023-03-25T05:44:55.985Z,9.67
2023-03-25T05:45:56.705Z,9.68
2023-03-25T05:46:59.290Z,9.68
2023-03-25T05:47:58.359Z,9.67
2023-03-25T05:48:59.070Z,9.68
2023-03-25T05:49:59.774Z,9.65
2023-03-25T05:51:00.448Z,9.65
2023-03-25T05:52:01.162Z,9.65
2023-03-25T05:53:01.860Z,9.63
2023-03-25T05:54:02.529Z,9.59
2023-03-25T05:55:03.261Z,9.62
2023-03-25T05:56:03.952Z,9.62
2023-03-25T05:57:04.694Z,9.62
2023-03-25T05:58:05.374Z,9.59
2023-03-25T05:59:06.077Z,9.60
2023-03-25T06:00:06.759Z,9.60
2023-03-25T06:01:12.356Z,9.58
2023-03-25T06:02:08.466Z,9.62
2023-03-25T06:03:09.351Z,9.62
2023-03-25T06:04:09.765Z,9.63
2023-03-25T06:05:10.454Z,9.60
2023-03-25T06:06:11.106Z,9.62
2023-03-25T06:07:11.796Z,9.63
2023-03-25T06:08:12.479Z,9.62
2023-03-25T06:09:13.180Z,9.60
2023-03-25T06:10:13.887Z,9.65
2023-03-25T06:11:14.572Z,9.67
2023-03-25T06:12:15.249Z,9.67
2023-03-25T06:13:15.971Z,9.68
2023-03-25T06:14:16.661Z,9.67
2023-03-25T06:15:17.344Z,9.67
2023-03-25T06:16:18.074Z,9.65
2023-03-25T06:17:18.746Z,9.68
2023-03-25T06:18:19.476Z,9.67
2023-03-25T06:19:20.205Z,9.68
2023-03-25T06:20:20.894Z,9.71
2023-03-25T06:21:21.586Z,9.68
2023-03-25T06:22:22.394Z,9.71
2023-03-25T06:23:25.356Z,9.71
2023-03-25T06:24:23.729Z,9.71
2023-03-25T06:25:24.423Z,9.73
2023-03-25T06:26:25.109Z,9.71
2023-03-25T06:27:25.827Z,9.73
2023-03-25T06:28:26.509Z,9.77
2023-03-25T06:29:27.198Z,9.77
2023-03-25T06:30:27.874Z,9.80
2023-03-25T06:31:28.679Z,9.80
2023-03-25T06:32:29.415Z,9.80
2023-03-25T06:33:42.662Z,9.80
2023-03-25T06:34:31.082Z,9.81
2023-03-25T06:35:31.757Z,9.81
2023-03-25T06:36:32.454Z,9.85
2023-03-25T06:37:33.125Z,9.83
2023-03-25T06:38:33.848Z,9.85
2023-03-25T06:39:34.532Z,9.89
2023-03-25T06:40:35.265Z,9.88
2023-03-25T06:41:36.093Z,9.88
2023-03-25T06:42:36.422Z,9.92
2023-03-25T06:43:37.137Z,9.95
2023-03-25T06:44:37.817Z,9.96
2023-03-25T06:45:38.555Z,9.95
2023-03-25T06:46:39.277Z,9.95
2023-03-25T06:47:40.127Z,9.98
2023-03-25T06:48:40.934Z,9.98
2023-03-25T06:49:41.612Z,9.99
2023-03-25T06:50:43.751Z,10.01
2023-03-25T06:51:43.327Z,9.99
2023-03-25T06:52:44.050Z,10.04
2023-03-25T06:53:44.797Z,10.04
2023-03-25T06:54:45.551Z,10.02
2023-03-25T06:55:46.231Z,10.02
2023-03-25T06:56:47.238Z,10.06
2023-03-25T06:57:47.980Z,10.06
2023-03-25T06:58:48.723Z,10.07
2023-03-25T06:59:49.426Z,10.07
2023-03-25T07:00:52.868Z,10.07
2023-03-25T07:01:51.622Z,10.07
2023-03-25T07:02:51.930Z,10.06
2023-03-25T07:03:52.043Z,10.07
2023-03-25T07:04:52.789Z,10.11
2023-03-25T07:05:53.657Z,10.04
2023-03-25T07:06:55.484Z,10.06
2023-03-25T07:07:55.112Z,10.01
2023-03-25T07:08:55.838Z,10.02
2023-03-25T07:09:56.551Z,9.99
2023-03-25T07:10:57.245Z,9.96
2023-03-25T07:11:57.974Z,9.93
2023-03-25T07:12:58.702Z,9.92
2023-03-25T07:13:59.388Z,9.91
2023-03-25T07:15:00.116Z,9.86
2023-03-25T07:16:00.802Z,9.85
2023-03-25T07:17:01.479Z,9.81
2023-03-25T07:18:02.176Z,9.77
2023-03-25T07:19:02.906Z,9.75
2023-03-25T07:20:03.623Z,9.74
2023-03-25T07:21:04.298Z,9.74
2023-03-25T07:22:04.993Z,9.75
2023-03-25T07:23:05.683Z,9.73
2023-03-25T07:24:06.361Z,9.73
2023-03-25T07:25:07.076Z,9.71
2023-03-25T07:26:07.752Z,9.73
2023-03-25T07:27:08.457Z,9.71
2023-03-25T07:28:09.232Z,9.70
2023-03-25T07:29:09.912Z,9.70
2023-03-25T07:30:10.633Z,9.68
2023-03-25T07:31:11.373Z,9.65
2023-03-25T07:32:12.059Z,9.67
2023-03-25T07:33:12.772Z,9.65
2023-03-25T07:34:13.480Z,9.65
2023-03-25T07:35:14.148Z,9.65
2023-03-25T07:36:14.845Z,9.67
2023-03-25T07:37:15.533Z,9.70
2023-03-25T07:38:16.237Z,9.68
2023-03-25T07:39:16.916Z,9.71
2023-03-25T07:40:17.625Z,9.71
2023-03-25T07:41:18.281Z,9.73
2023-03-25T07:42:18.973Z,9.74
2023-03-25T07:43:19.694Z,9.73
2023-03-25T07:44:20.407Z,9.74
2023-03-25T07:45:21.263Z,9.71
2023-03-25T07:46:22.009Z,9.70
2023-03-25T07:47:22.775Z,9.63
2023-03-25T07:48:23.449Z,9.60
2023-03-25T07:49:24.149Z,9.53
2023-03-25T07:50:25.448Z,9.52
2023-03-25T07:51:25.686Z,9.50
2023-03-25T07:52:26.355Z,9.45
2023-03-25T07:53:27.061Z,9.40
2023-03-25T07:54:27.750Z,9.37
2023-03-25T07:55:28.422Z,9.35
2023-03-25T07:56:29.151Z,9.35
2023-03-25T07:57:29.852Z,9.34
2023-03-25T07:58:30.551Z,9.32
2023-03-25T07:59:31.265Z,9.27
2023-03-25T08:00:31.921Z,9.27
2023-03-25T08:01:32.599Z,9.24
2023-03-25T08:02:33.448Z,9.22
2023-03-25T08:03:34.215Z,9.16
2023-03-25T08:04:34.927Z,9.13
2023-03-25T08:05:35.673Z,9.08
2023-03-25T08:06:36.375Z,9.03
2023-03-25T08:07:37.076Z,8.97
2023-03-25T08:08:37.786Z,8.98
2023-03-25T08:09:38.478Z,8.93
2023-03-25T08:10:39.209Z,8.89
2023-03-25T08:11:39.882Z,8.89
2023-03-25T08:12:40.562Z,8.86
2023-03-25T08:13:41.479Z,8.88
2023-03-25T08:14:42.134Z,8.85
2023-03-25T08:15:42.843Z,8.89
2023-03-25T08:16:43.535Z,8.91
2023-03-25T08:17:44.821Z,8.91
2023-03-25T08:18:45.055Z,8.96
2023-03-25T08:19:45.944Z,8.96
2023-03-25T08:20:46.723Z,8.98
2023-03-25T08:21:47.396Z,9.01
2023-03-25T08:22:48.100Z,9.03
2023-03-25T08:23:49.558Z,9.04
2023-03-25T08:24:49.667Z,9.10
2023-03-25T08:25:50.927Z,9.12
2023-03-25T08:26:51.103Z,9.16
2023-03-25T08:27:52.537Z,9.12
2023-03-25T08:28:52.606Z,9.15
2023-03-25T08:29:53.297Z,9.19
2023-03-25T08:30:53.972Z,9.30
2023-03-25T08:31:54.781Z,9.35
2023-03-25T08:32:55.472Z,9.50
2023-03-25T08:33:56.253Z,9.60
2023-03-25T08:34:57.496Z,9.75
2023-03-25T08:35:57.735Z,9.92
2023-03-25T08:36:58.879Z,10.09
2023-03-25T08:37:59.013Z,10.20
2023-03-25T08:38:59.917Z,10.32
2023-03-25T08:40:00.673Z,10.51
2023-03-25T08:41:01.399Z,10.62
2023-03-25T08:42:02.115Z,10.70
2023-03-25T08:43:02.836Z,10.83
2023-03-25T08:44:03.554Z,10.88
2023-03-25T08:45:04.275Z,10.95
2023-03-25T08:46:05.018Z,11.05
2023-03-25T08:47:05.742Z,11.03
2023-03-25T08:48:06.583Z,11.11
2023-03-25T08:49:07.349Z,11.17
2023-03-25T08:50:08.070Z,11.27
2023-03-25T08:51:08.789Z,11.33
2023-03-25T08:52:09.542Z,11.42
2023-03-25T08:53:10.256Z,11.42
2023-03-25T08:54:10.955Z,11.48
2023-03-25T08:55:12.421Z,11.56
2023-03-25T08:56:12.722Z,11.60
2023-03-25T08:57:13.483Z,11.67
2023-03-25T08:58:14.182Z,11.66
2023-03-25T08:59:15.746Z,11.64
2023-03-25T09:00:15.888Z,11.63
2023-03-25T09:01:16.645Z,11.63
2023-03-25T09:02:17.344Z,11.62
2023-03-25T09:03:18.056Z,11.59
2023-03-25T09:04:18.795Z,11.54
2023-03-25T09:05:19.543Z,11.56
2023-03-25T09:06:20.299Z,11.57
2023-03-25T09:07:20.997Z,11.57
2023-03-25T09:08:21.728Z,11.59
2023-03-25T09:09:22.429Z,11.57
2023-03-25T09:10:23.180Z,11.49
2023-03-25T09:11:33.935Z,11.48
2023-03-25T09:12:24.878Z,11.46
2023-03-25T09:13:25.590Z,11.48
2023-03-25T09:14:26.321Z,11.48
2023-03-25T09:15:27.025Z,11.41
2023-03-25T09:16:27.808Z,11.31
2023-03-25T09:17:28.580Z,11.27
2023-03-25T09:18:29.304Z,11.23
2023-03-25T09:19:30.020Z,11.23
2023-03-25T09:20:30.739Z,11.20
2023-03-25T09:21:31.477Z,11.23
2023-03-25T09:22:32.184Z,11.19
2023-03-25T09:23:32.957Z,11.23
2023-03-25T09:24:33.652Z,11.19
2023-03-25T09:25:34.364Z,11.21
2023-03-25T09:26:35.064Z,11.24
2023-03-25T09:27:35.792Z,11.26
2023-03-25T09:28:36.501Z,11.28
2023-03-25T09:29:37.205Z,11.33
2023-03-25T09:30:37.890Z,11.35
2023-03-25T09:31:38.665Z,11.38
2023-03-25T09:32:39.414Z,11.44
2023-03-25T09:33:40.101Z,11.44
2023-03-25T09:34:40.806Z,11.45
2023-03-25T09:35:41.645Z,11.48
2023-03-25T09:36:42.397Z,11.49
2023-03-25T09:37:43.100Z,11.54
2023-03-25T09:38:43.832Z,11.53
2023-03-25T09:39:44.521Z,11.53
2023-03-25T09:40:45.238Z,11.56
2023-03-25T09:41:45.929Z,11.49
2023-03-25T09:42:46.666Z,11.46
2023-03-25T09:43:47.349Z,11.48
2023-03-25T09:44:48.153Z,11.45
2023-03-25T09:45:48.989Z,11.46
2023-03-25T09:46:49.929Z,11.45
2023-03-25T09:47:50.736Z,11.46
2023-03-25T09:48:52.273Z,11.44
2023-03-25T09:49:52.427Z,11.42
2023-03-25T09:50:53.802Z,11.48
2023-03-25T09:51:53.992Z,11.49
2023-03-25T09:52:54.784Z,11.49
2023-03-25T09:53:55.897Z,11.49
2023-03-25T09:54:56.010Z,11.46
2023-03-25T09:55:56.705Z,11.42
2023-03-25T09:56:57.457Z,11.45
2023-03-25T09:57:58.170Z,11.45
2023-03-25T09:58:58.889Z,11.44
2023-03-25T09:59:59.601Z,11.46
2023-03-25T10:01:00.440Z,11.46
2023-03-25T10:02:01.244Z,11.48
2023-03-25T10:03:02.001Z,11.48
2023-03-25T10:04:02.722Z,11.53
2023-03-25T10:05:03.413Z,11.54
2023-03-25T10:06:04.116Z,11.56
2023-03-25T10:07:04.832Z,11.56
2023-03-25T10:08:05.542Z,11.56
2023-03-25T10:09:06.267Z,11.62
2023-03-25T10:10:06.955Z,11.77
2023-03-25T10:11:07.673Z,11.84
2023-03-25T10:12:08.370Z,11.90
2023-03-25T10:13:09.084Z,11.97
2023-03-25T10:14:09.780Z,12.04
2023-03-25T10:15:10.501Z,12.03
2023-03-25T10:16:11.223Z,12.11
2023-03-25T10:17:11.927Z,12.13
2023-03-25T10:18:12.652Z,12.12
2023-03-25T10:19:13.324Z,12.13
2023-03-25T10:20:14.047Z,12.13
2023-03-25T10:21:14.729Z,12.15
2023-03-25T10:22:15.427Z,12.13
2023-03-25T10:23:16.135Z,12.11
2023-03-25T10:24:16.841Z,12.08
2023-03-25T10:25:17.567Z,12.04
2023-03-25T10:26:18.270Z,11.98
2023-03-25T10:27:18.969Z,11.96
2023-03-25T10:28:19.671Z,11.93
2023-03-25T10:29:20.392Z,11.88
2023-03-25T10:30:21.171Z,11.85
2023-03-25T10:31:21.893Z,11.82
2023-03-25T10:32:22.603Z,11.77
2023-03-25T10:33:23.352Z,11.66
2023-03-25T10:34:24.073Z,11.62
2023-03-25T10:35:24.786Z,11.62
2023-03-25T10:36:25.552Z,11.69
2023-03-25T10:37:26.275Z,11.84
2023-03-25T10:38:27.023Z,12.01
2023-03-25T10:39:27.743Z,12.16
2023-03-25T10:40:28.439Z,12.34
2023-03-25T10:41:29.149Z,12.52
2023-03-25T10:42:29.835Z,12.71
2023-03-25T10:43:30.633Z,12.77
2023-03-25T10:44:31.347Z,12.79
2023-03-25T10:45:32.064Z,12.88
2023-03-25T10:46:32.766Z,12.94
2023-03-25T10:47:33.472Z,12.95
2023-03-25T10:48:34.177Z,13.06
2023-03-25T10:49:34.873Z,13.14
2023-03-25T10:50:35.619Z,13.13
2023-03-25T10:51:36.301Z,13.17
2023-03-25T10:52:37.022Z,13.24
2023-03-25T10:53:37.750Z,13.32
2023-03-25T10:54:38.459Z,13.38
2023-03-25T10:55:39.180Z,13.44
2023-03-25T10:56:39.931Z,13.44
2023-03-25T10:57:40.612Z,13.46
2023-03-25T10:58:41.327Z,13.43
2023-03-25T10:59:42.046Z,13.53
2023-03-25T11:00:42.731Z,13.65
2023-03-25T11:01:43.438Z,13.63
2023-03-25T11:02:44.168Z,13.57
2023-03-25T11:03:44.899Z,13.59
2023-03-25T11:04:45.629Z,13.55
2023-03-25T11:05:46.329Z,13.62
2023-03-25T11:06:47.063Z,13.53
2023-03-25T11:07:47.759Z,13.47
2023-03-25T11:08:48.483Z,13.46
2023-03-25T11:09:49.184Z,13.43
2023-03-25T11:10:49.922Z,13.48
2023-03-25T11:11:50.629Z,13.51
2023-03-25T11:12:51.347Z,13.57
2023-03-25T11:13:52.064Z,13.59
2023-03-25T11:14:52.835Z,13.62
2023-03-25T11:15:53.859Z,13.62
2023-03-25T11:16:54.309Z,13.61
2023-03-25T11:17:55.020Z,13.63
2023-03-25T11:18:55.741Z,13.65
2023-03-25T11:19:56.459Z,13.69
2023-03-25T11:20:57.215Z,13.68
2023-03-25T11:21:57.931Z,13.68
2023-03-25T11:22:58.641Z,13.69
2023-03-25T11:23:59.354Z,13.75
2023-03-25T11:25:00.053Z,13.75
2023-03-25T11:26:00.793Z,13.68
2023-03-25T11:27:01.499Z,13.50
2023-03-25T11:28:02.235Z,13.44
2023-03-25T11:29:02.950Z,13.50
2023-03-25T11:30:03.691Z,13.50
2023-03-25T11:31:04.426Z,13.51
2023-03-25T11:32:05.125Z,13.48
2023-03-25T11:33:05.951Z,13.43
2023-03-25T11:34:06.792Z,13.46
2023-03-25T11:35:07.509Z,13.51
2023-03-25T11:36:08.216Z,13.53
2023-03-25T11:37:08.923Z,13.57
2023-03-25T11:38:09.632Z,13.53
2023-03-25T11:39:11.366Z,13.51
2023-03-25T11:40:10.963Z,13.51
2023-03-25T11:41:11.663Z,13.44
2023-03-25T11:42:12.461Z,13.35
2023-03-25T11:43:13.163Z,13.32
2023-03-25T11:44:13.872Z,13.22
2023-03-25T11:45:14.600Z,13.19
2023-03-25T11:46:15.328Z,13.14
2023-03-25T11:47:16.095Z,13.07
2023-03-25T11:48:16.860Z,12.98
2023-03-25T11:49:17.544Z,12.89
2023-03-25T11:50:18.310Z,12.85
2023-03-25T11:51:19.093Z,12.76
2023-03-25T11:52:19.839Z,12.71
2023-03-25T11:53:20.539Z,12.74
2023-03-25T11:54:21.235Z,12.79
2023-03-25T11:55:21.962Z,12.92
2023-03-25T11:56:22.693Z,12.99
2023-03-25T11:57:23.382Z,13.13
2023-03-25T11:58:24.100Z,13.27
2023-03-25T11:59:24.820Z,13.47
2023-03-25T12:00:25.573Z,13.63
2023-03-25T12:01:26.293Z,13.76
2023-03-25T12:02:27.200Z,13.84
2023-03-25T12:03:28.080Z,13.88
2023-03-25T12:04:28.849Z,13.84
2023-03-25T12:05:29.575Z,13.83
2023-03-25T12:06:30.290Z,13.71
2023-03-25T12:07:31.331Z,13.61
2023-03-25T12:08:32.130Z,13.53
2023-03-25T12:09:32.835Z,13.43
2023-03-25T12:10:33.502Z,13.31
2023-03-25T12:11:34.204Z,13.24
2023-03-25T12:12:34.920Z,13.14
2023-03-25T12:13:35.633Z,13.13
2023-03-25T12:14:36.612Z,13.06
2023-03-25T12:15:38.459Z,12.98
2023-03-25T12:16:38.422Z,12.96
2023-03-25T12:17:39.201Z,12.80
2023-03-25T12:18:41.424Z,12.76
2023-03-25T12:19:40.393Z,12.71
2023-03-25T12:20:41.087Z,12.69
2023-03-25T12:21:41.795Z,12.69
2023-03-25T12:22:42.531Z,12.71
2023-03-25T12:23:43.485Z,12.74
2023-03-25T12:24:44.178Z,12.76
2023-03-25T12:25:44.877Z,12.77
2023-03-25T12:26:45.586Z,12.85
2023-03-25T12:27:46.282Z,12.88
2023-03-25T12:28:46.996Z,12.95
2023-03-25T12:29:47.756Z,13.04
2023-03-25T12:30:48.608Z,13.06
2023-03-25T12:31:49.424Z,13.06
2023-03-25T12:32:50.149Z,13.06
2023-03-25T12:33:50.969Z,13.10
2023-03-25T12:34:51.634Z,13.12
2023-03-25T12:35:53.002Z,13.12
2023-03-25T12:36:53.121Z,13.12
2023-03-25T12:37:53.831Z,13.17
2023-03-25T12:38:54.564Z,13.17
2023-03-25T12:39:55.260Z,13.19
2023-03-25T12:40:55.963Z,13.25
2023-03-25T12:41:56.676Z,13.28
2023-03-25T12:42:57.346Z,13.36
2023-03-25T12:43:58.087Z,13.39
2023-03-25T12:44:58.784Z,13.46
2023-03-25T12:45:59.610Z,13.43
2023-03-25T12:47:00.334Z,13.44
2023-03-25T12:48:01.072Z,13.51
2023-03-25T12:49:01.784Z,13.54
2023-03-25T12:50:02.530Z,13.59
2023-03-25T12:51:03.209Z,13.65
2023-03-25T12:52:03.928Z,13.72
2023-03-25T12:53:04.632Z,13.73
2023-03-25T12:54:05.376Z,13.76
2023-03-25T12:55:06.073Z,13.79
2023-03-25T12:56:06.763Z,13.83
2023-03-25T12:57:07.515Z,13.80
2023-03-25T12:58:08.299Z,13.79
2023-03-25T12:59:09.024Z,13.73
2023-03-25T13:00:09.743Z,13.72
2023-03-25T13:01:10.544Z,13.66
2023-03-25T13:02:11.253Z,13.57
2023-03-25T13:03:11.998Z,13.57
2023-03-25T13:04:12.701Z,13.51
2023-03-25T13:05:13.402Z,13.54
2023-03-25T13:06:14.097Z,13.57
2023-03-25T13:07:14.867Z,13.55
2023-03-25T13:08:15.603Z,13.48
2023-03-25T13:09:16.320Z,13.43
2023-03-25T13:10:17.025Z,13.36
2023-03-25T13:11:17.730Z,13.36